Time;durP1;ratioP1;P1;durP2;ratioP2;P2;SDS_P1;SDS_P2;PMS_P1;PMS_P2;Temp;Humidity;BMP_temperature;BMP_pressure;BME280_temperature;BME280_humidity;BME280_pressure;Samples;Min_cycle;Max_cycle;Signal;HPM_P1;HPM_P2
2022/01/05 00:00:19;;;;;;;;;;;;;;;20.28;59.89;99156.03;5035803;28;4427;-69
2022/01/05 00:02:45;;;;;;;;;;;;;;;20.31;59.60;99154.66;5037244;28;4135;-68
2022/01/05 00:05:12;;;;;;;;;;;;;;;20.21;59.76;99166.66;5034713;28;4420;-68
2022/01/05 00:07:38;;;;;;;;;;;;;;;20.20;59.93;99165.22;5032358;28;4209;-68
2022/01/05 00:10:05;;;;;;;;;;;;;;;20.23;59.59;99172.47;5034914;28;4103;-69
2022/01/05 00:12:31;;;;;;;;;;;;;;;20.28;59.01;99171.13;5035508;28;4280;-68
2022/01/05 00:14:57;;;;;;;;;;;;;;;20.29;59.23;99169.72;5034346;28;5312;-69
2022/01/05 00:17:24;;;;;;;;;;;;;;;20.26;59.50;99161.72;5033507;28;4656;-67
2022/01/05 00:19:50;;;;;;;;;;;;;;;20.17;59.67;99163.72;5033738;28;4973;-68
2022/01/05 00:22:17;;;;;;;;;;;;;;;20.29;59.39;99177.59;5032874;28;4110;-70
2022/01/05 00:24:43;;;;;;;;;;;;;;;20.22;59.61;99179.63;5034872;28;4202;-68
2022/01/05 00:27:10;;;;;;;;;;;;;;;20.34;59.33;99170.53;5033436;28;4130;-68
2022/01/05 00:29:36;;;;;;;;;;;;;;;20.32;59.48;99172.59;5032405;28;4172;-68
2022/01/05 00:32:04;;;;;;;;;;;;;;;20.22;59.84;99164.53;5037915;28;4023;-68
2022/01/05 00:34:30;;;;;;;;;;;;;;;20.27;59.43;99166.06;5033281;28;4565;-68
2022/01/05 00:36:56;;;;;;;;;;;;;;;20.26;59.84;99147.38;5032373;28;4275;-68
2022/01/05 00:39:23;;;;;;;;;;;;;;;20.30;59.16;99151.03;5035557;28;4224;-68
2022/01/05 00:41:49;;;;;;;;;;;;;;;20.25;59.68;99163.16;5033166;28;5198;-67
2022/01/05 00:44:15;;;;;;;;;;;;;;;20.23;59.11;99160.25;5037635;28;4249;-68
2022/01/05 00:46:42;;;;;;;;;;;;;;;20.22;59.45;99158.78;5035569;28;5329;-68
2022/01/05 00:49:08;;;;;;;;;;;;;;;20.14;59.81;99152.88;5037025;28;4282;-68
2022/01/05 00:51:34;;;;;;;;;;;;;;;20.11;59.87;99149.22;5033271;28;4160;-68
2022/01/05 00:54:01;;;;;;;;;;;;;;;20.16;59.97;99152.91;5033865;28;4254;-68
2022/01/05 00:56:27;;;;;;;;;;;;;;;20.10;60.09;99147.78;5035390;28;4184;-68
2022/01/05 00:58:54;;;;;;;;;;;;;;;20.26;59.59;99158.84;5038002;28;4022;-68
2022/01/05 01:01:20;;;;;;;;;;;;;;;20.32;59.79;99149.63;5031626;28;4239;-68
2022/01/05 01:03:47;;;;;;;;;;;;;;;20.35;59.22;99154.00;5035352;28;5508;-68
2022/01/05 01:06:13;;;;;;;;;;;;;;;20.30;59.21;99141.69;5031231;28;4289;-68
2022/01/05 01:08:39;;;;;;;;;;;;;;;20.32;59.46;99150.38;5031856;28;4223;-68
2022/01/05 01:11:06;;;;;;;;;;;;;;;20.17;59.95;99151.50;5035393;28;4242;-68
2022/01/05 01:13:32;;;;;;;;;;;;;;;20.14;59.67;99153.59;5030114;28;4282;-68
2022/01/05 01:15:58;;;;;;;;;;;;;;;20.13;59.72;99152.13;5032811;28;4293;-68
2022/01/05 01:18:25;;;;;;;;;;;;;;;20.08;60.14;99147.72;5032450;28;4244;-68
2022/01/05 01:20:51;;;;;;;;;;;;;;;20.06;60.19;99159.19;5033552;28;4141;-68
2022/01/05 01:23:20;;;;;;;;;;;;;;;20.14;60.03;99156.47;5036702;28;5258;-68
2022/01/05 01:25:47;;;;;;;;;;;;;;;20.21;59.34;99154.47;5031818;28;4236;-68
2022/01/05 01:28:13;;;;;;;;;;;;;;;20.17;59.85;99151.50;5032487;28;4082;-68
2022/01/05 01:30:40;;;;;;;;;;;;;;;20.12;59.66;99158.59;5033754;28;4249;-68
2022/01/05 01:33:06;;;;;;;;;;;;;;;20.18;59.91;99170.19;5032374;28;4172;-67
2022/01/05 01:35:33;;;;;;;;;;;;;;;20.26;59.67;99176.09;5031791;28;4102;-68
2022/01/05 01:37:59;;;;;;;;;;;;;;;20.24;59.76;99161.69;5029689;28;5278;-68
2022/01/05 01:40:25;;;;;;;;;;;;;;;20.26;59.91;99161.72;5032568;28;4072;-68
2022/01/05 01:42:52;;;;;;;;;;;;;;;20.28;59.62;99161.78;5036385;28;4014;-68
2022/01/05 01:45:18;;;;;;;;;;;;;;;20.30;59.54;99161.81;5033720;28;4161;-68
2022/01/05 01:47:46;;;;;;;;;;;;;;;20.24;59.69;99161.69;5036651;28;4229;-67
2022/01/05 01:50:12;;;;;;;;;;;;;;;20.19;59.70;99157.28;5031104;28;3950;-67
2022/01/05 01:52:38;;;;;;;;;;;;;;;20.26;59.52;99155.97;5033952;28;4302;-68
2022/01/05 01:55:05;;;;;;;;;;;;;;;20.26;59.70;99148.09;5032181;28;4362;-67
2022/01/05 01:57:35;;;;;;;;;;;;;;;20.17;59.86;99140.72;5030430;28;4215;-67
2022/01/05 02:00:02;;;;;;;;;;;;;;;20.27;59.66;99131.56;5033785;28;4292;-68
2022/01/05 02:02:37;;;;;;;;;;;;;;;20.20;59.70;99127.88;5033035;28;4148;-67
2022/01/05 02:05:04;;;;;;;;;;;;;;;20.10;60.29;99136.28;5034967;28;4277;-67
2022/01/05 02:07:30;;;;;;;;;;;;;;;20.18;59.92;99132.81;5032654;28;4226;-68
2022/01/05 02:09:56;;;;;;;;;;;;;;;20.16;59.91;99141.41;5030974;28;4070;-68
2022/01/05 02:12:26;;;;;;;;;;;;;;;20.18;59.89;99135.69;5035417;28;4176;-67
2022/01/05 02:14:53;;;;;;;;;;;;;;;20.19;59.88;99125.69;5033613;28;4538;-67
2022/01/05 02:17:23;;;;;;;;;;;;;;;20.18;59.70;99129.94;5029762;28;4107;-68
2022/01/05 02:19:49;;;;;;;;;;;;;;;20.11;60.13;99125.50;5028970;28;4011;-67
2022/01/05 02:22:16;;;;;;;;;;;;;;;20.35;59.13;99134.59;5034703;28;3935;-68
2022/01/05 02:24:47;;;;;;;;;;;;;;;20.12;59.81;99139.19;5031688;28;5392;-68
2022/01/05 02:27:14;;;;;;;;;;;;;;;20.19;59.68;99151.53;5029345;28;4126;-67
2022/01/05 02:29:40;;;;;;;;;;;;;;;20.21;59.33;99154.47;5027758;28;4179;-67
2022/01/05 02:32:07;;;;;;;;;;;;;;;20.23;59.33;99154.50;5029147;28;4494;-67
2022/01/05 02:34:33;;;;;;;;;;;;;;;20.23;59.47;99160.25;5034593;28;4470;-67
2022/01/05 02:37:00;;;;;;;;;;;;;;;20.22;59.56;99150.16;5032344;28;4049;-67
2022/01/05 02:39:26;;;;;;;;;;;;;;;20.41;59.13;99160.59;5030206;28;4589;-67
2022/01/05 02:41:53;;;;;;;;;;;;;;;20.20;59.50;99153.72;5032255;28;4243;-67
2022/01/05 02:44:19;;;;;;;;;;;;;;;20.19;59.40;99155.13;5029521;28;4067;-68
2022/01/05 02:46:45;;;;;;;;;;;;;;;20.26;59.29;99156.72;5033263;28;4263;-67
2022/01/05 02:49:12;;;;;;;;;;;;;;;20.17;59.50;99151.50;5031992;28;4070;-67
2022/01/05 02:51:38;;;;;;;;;;;;;;;20.22;59.85;99162.38;5033427;28;4279;-67
2022/01/05 02:54:04;;;;;;;;;;;;;;;20.14;59.59;99156.47;5031210;28;4060;-67
2022/01/05 02:56:31;;;;;;;;;;;;;;;20.17;59.99;99157.97;5028149;28;6322;-67
2022/01/05 02:58:57;;;;;;;;;;;;;;;20.10;60.13;99156.38;5031502;28;4143;-67
2022/01/05 03:01:23;;;;;;;;;;;;;;;20.21;59.80;99157.31;5032512;28;4169;-67
2022/01/05 03:03:50;;;;;;;;;;;;;;;20.19;59.45;99155.13;5029339;28;4227;-67
2022/01/05 03:06:17;;;;;;;;;;;;;;;20.24;59.55;99158.81;5031430;28;4232;-67
2022/01/05 03:08:44;;;;;;;;;;;;;;;20.13;59.88;99160.03;5010988;28;5124;-67
2022/01/05 03:11:10;;;;;;;;;;;;;;;20.12;59.87;99152.84;5032805;28;4165;-67
2022/01/05 03:13:36;;;;;;;;;;;;;;;20.18;59.43;99147.19;5031267;28;5321;-67
2022/01/05 03:16:03;;;;;;;;;;;;;;;20.20;59.63;99144.38;5031243;28;4532;-67
2022/01/05 03:18:29;;;;;;;;;;;;;;;20.32;59.19;99144.63;5034166;28;4410;-67
2022/01/05 03:20:55;;;;;;;;;;;;;;;20.25;59.04;99137.28;5035379;28;4230;-67
2022/01/05 03:23:22;;;;;;;;;;;;;;;20.24;59.21;99133.69;5034290;28;4174;-69
2022/01/05 03:25:48;;;;;;;;;;;;;;;20.17;59.59;99146.47;5036726;28;4166;-68
2022/01/05 03:28:14;;;;;;;;;;;;;;;20.19;59.64;99154.41;5036220;28;4128;-67
2022/01/05 03:30:42;;;;;;;;;;;;;;;20.09;59.95;99149.91;5034387;28;4099;-67
2022/01/05 03:33:11;;;;;;;;;;;;;;;20.16;59.94;99147.16;5032459;28;5290;-67
2022/01/05 03:35:39;;;;;;;;;;;;;;;20.28;59.34;99138.78;5029728;28;4169;-67
2022/01/05 03:38:05;;;;;;;;;;;;;;;20.23;59.65;99140.13;5031924;28;4388;-67
2022/01/05 03:40:32;;;;;;;;;;;;;;;20.24;59.43;99139.41;5032044;28;4118;-67
2022/01/05 03:42:58;;;;;;;;;;;;;;;20.14;59.78;99141.38;5032810;28;4068;-68
2022/01/05 03:45:25;;;;;;;;;;;;;;;20.16;59.60;99147.91;5033627;28;4146;-68
2022/01/05 03:47:51;;;;;;;;;;;;;;;20.16;59.44;99150.03;5034519;28;4041;-67
2022/01/05 03:50:18;;;;;;;;;;;;;;;20.18;59.79;99156.56;5029104;28;4453;-68
2022/01/05 03:52:44;;;;;;;;;;;;;;;20.22;59.79;99161.66;5030208;28;4582;-67
2022/01/05 03:55:10;;;;;;;;;;;;;;;20.14;59.61;99170.13;5028470;28;4155;-67
2022/01/05 03:57:37;;;;;;;;;;;;;;;20.31;58.99;99166.13;5028272;28;4012;-67
2022/01/05 04:00:04;;;;;;;;;;;;;;;20.23;59.69;99160.25;5030442;28;4241;-67
2022/01/05 04:02:38;;;;;;;;;;;;;;;20.34;59.21;99152.53;5033402;28;4157;-67
2022/01/05 04:05:04;;;;;;;;;;;;;;;20.34;59.15;99155.41;5028381;28;4186;-67
2022/01/05 04:07:31;;;;;;;;;;;;;;;20.38;58.97;99159.09;5029472;28;4202;-67
2022/01/05 04:09:57;;;;;;;;;;;;;;;20.12;60.03;99172.94;5028520;28;4432;-67
2022/01/05 04:12:23;;;;;;;;;;;;;;;20.34;59.38;99161.91;5027808;28;4087;-67
2022/01/05 04:14:50;;;;;;;;;;;;;;;20.24;59.27;99176.78;5031522;28;4173;-67
2022/01/05 04:17:16;;;;;;;;;;;;;;;20.29;59.01;99180.47;5030072;28;5002;-67
2022/01/05 04:19:43;;;;;;;;;;;;;;;20.19;59.84;99165.91;5030850;28;4434;-67
2022/01/05 04:22:09;;;;;;;;;;;;;;;20.07;60.29;99170.00;5024216;28;4137;-67
2022/01/05 04:24:35;;;;;;;;;;;;;;;20.15;60.19;99171.56;5032756;28;4123;-66
2022/01/05 04:27:02;;;;;;;;;;;;;;;20.16;59.90;99173.00;5013275;28;4334;-67
2022/01/05 04:29:28;;;;;;;;;;;;;;;20.15;59.94;99166.53;5027678;28;4140;-67
2022/01/05 04:31:54;;;;;;;;;;;;;;;20.15;60.10;99174.44;5031048;28;4719;-66
2022/01/05 04:34:21;;;;;;;;;;;;;;;20.18;59.91;99175.94;5031071;28;4460;-67
2022/01/05 04:37:07;;;;;;;;;;;;;;;20.16;59.74;99178.75;5031125;28;4075;-67
2022/01/05 04:39:34;;;;;;;;;;;;;;;20.19;59.62;99171.66;5027520;28;4618;-67
2022/01/05 04:42:00;;;;;;;;;;;;;;;20.14;59.66;99181.63;5029261;28;4721;-67
2022/01/05 04:44:26;;;;;;;;;;;;;;;20.12;60.35;99181.56;5028094;28;4158;-67
2022/01/05 04:46:53;;;;;;;;;;;;;;;20.21;59.65;99178.16;5038635;28;5269;-67
2022/01/05 04:49:19;;;;;;;;;;;;;;;20.09;59.96;99163.56;5033549;28;4110;-67
2022/01/05 04:51:46;;;;;;;;;;;;;;;20.09;60.41;99163.56;5031148;28;4152;-66
2022/01/05 04:54:12;;;;;;;;;;;;;;;20.24;59.74;99173.91;5030202;28;5015;-66
2022/01/05 04:56:39;;;;;;;;;;;;;;;20.17;60.09;99175.22;5032033;28;4212;-66
2022/01/05 04:59:05;;;;;;;;;;;;;;;20.27;59.56;99166.81;5035006;28;4160;-67
2022/01/05 05:01:31;;;;;;;;;;;;;;;20.12;60.13;99167.94;5033397;28;4217;-66
2022/01/05 05:03:58;;;;;;;;;;;;;;;20.16;59.96;99184.50;5035894;28;5595;-67
2022/01/05 05:06:25;;;;;;;;;;;;;;;20.11;60.31;99180.81;5036348;28;4229;-67
2022/01/05 05:08:51;;;;;;;;;;;;;;;20.25;59.64;99180.41;5034842;28;4903;-67
2022/01/05 05:11:17;;;;;;;;;;;;;;;20.27;59.37;99180.44;5036417;28;5229;-66
2022/01/05 05:13:44;;;;;;;;;;;;;;;20.20;59.57;99158.72;5036204;28;4235;-67
2022/01/05 05:16:10;;;;;;;;;;;;;;;20.19;59.61;99171.66;5036839;28;4551;-67
2022/01/05 05:18:36;;;;;;;;;;;;;;;20.05;60.24;99164.19;5035075;28;4228;-67
2022/01/05 05:21:03;;;;;;;;;;;;;;;20.11;59.91;99171.47;5035473;28;4190;-67
2022/01/05 05:23:29;;;;;;;;;;;;;;;20.21;59.54;99175.28;5037927;28;4128;-67
2022/01/05 05:25:56;;;;;;;;;;;;;;;20.24;59.77;99167.44;5035958;28;4297;-67
2022/01/05 05:28:22;;;;;;;;;;;;;;;20.14;59.78;99158.63;5037887;28;4113;-68
2022/01/05 05:30:48;;;;;;;;;;;;;;;20.26;59.45;99167.47;5037018;28;3988;-67
2022/01/05 05:33:15;;;;;;;;;;;;;;;20.22;59.47;99158.78;5035034;28;4153;-66
2022/01/05 05:35:41;;;;;;;;;;;;;;;20.27;59.27;99160.31;5036831;28;4350;-67
2022/01/05 05:38:08;;;;;;;;;;;;;;;20.23;59.39;99157.38;5036672;28;4380;-67
2022/01/05 05:40:37;;;;;;;;;;;;;;;20.26;59.30;99170.34;5035989;28;4171;-66
2022/01/05 05:43:04;;;;;;;;;;;;;;;20.16;59.46;99173.00;5035393;28;3972;-67
2022/01/05 05:45:30;;;;;;;;;;;;;;;20.18;59.08;99164.44;5034032;28;4270;-67
2022/01/05 05:47:56;;;;;;;;;;;;;;;20.11;59.51;99165.72;5033017;28;3972;-68
2022/01/05 05:50:23;;;;;;;;;;;;;;;20.13;59.80;99172.25;5032245;28;4223;-68
2022/01/05 05:52:49;;;;;;;;;;;;;;;20.14;59.81;99175.88;5035571;28;4086;-67
2022/01/05 05:55:15;;;;;;;;;;;;;;;20.34;59.45;99181.28;5035078;28;4144;-76
2022/01/05 05:57:42;;;;;;;;;;;;;;;19.60;59.01;99180.44;5027911;28;4141;-67
2022/01/05 06:00:09;;;;;;;;;;;;;;;19.48;61.52;99183.03;5032102;28;4214;-68
2022/01/05 06:02:36;;;;;;;;;;;;;;;19.91;60.25;99181.13;5034958;28;4564;-68
2022/01/05 06:05:02;;;;;;;;;;;;;;;20.03;60.12;99180.66;5033742;28;5843;-67
2022/01/05 06:07:28;;;;;;;;;;;;;;;20.14;59.71;99176.59;5032936;28;4591;-67
2022/01/05 06:09:55;;;;;;;;;;;;;;;20.13;59.43;99185.88;5034085;28;4104;-68
2022/01/05 06:12:21;;;;;;;;;;;;;;;20.08;59.90;99180.06;5031846;28;4184;-67
2022/01/05 06:14:47;;;;;;;;;;;;;;;20.09;59.92;99175.78;5028662;28;4229;-67
2022/01/05 06:17:14;;;;;;;;;;;;;;;20.13;59.90;99168.66;5016842;28;4016;-67
2022/01/05 06:19:40;;;;;;;;;;;;;;;20.25;59.37;99186.16;5014202;28;4680;-67
2022/01/05 06:22:07;;;;;;;;;;;;;;;20.24;59.35;99190.44;5015203;28;4737;-66
2022/01/05 06:24:34;;;;;;;;;;;;;;;20.19;59.28;99188.91;5017750;28;5555;-67
2022/01/05 06:27:02;;;;;;;;;;;;;;;20.11;59.70;99203.81;5017673;28;4186;-68
2022/01/05 06:29:28;;;;;;;;;;;;;;;20.21;59.42;99209.06;5015559;28;4702;-66
2022/01/05 06:31:54;;;;;;;;;;;;;;;20.20;59.67;99213.34;5028125;28;4741;-67
2022/01/05 06:34:21;;;;;;;;;;;;;;;20.20;59.91;99210.47;5034334;28;4681;-67
2022/01/05 06:36:47;;;;;;;;;;;;;;;20.35;59.25;99217.97;5034409;28;4679;-67
2022/01/05 06:39:13;;;;;;;;;;;;;;;20.22;59.86;99227.75;5035546;28;4251;-67
2022/01/05 06:41:40;;;;;;;;;;;;;;;20.25;59.88;99229.25;5034573;28;4223;-67
2022/01/05 06:44:08;;;;;;;;;;;;;;;20.28;59.71;99225.00;5035343;28;4218;-68
2022/01/05 06:46:34;;;;;;;;;;;;;;;20.27;60.11;99223.53;5035510;28;4101;-67
2022/01/05 06:49:00;;;;;;;;;;;;;;;20.17;60.42;99232.69;5034002;28;4642;-67
2022/01/05 06:51:27;;;;;;;;;;;;;;;20.24;59.89;99227.78;5035155;28;4611;-67
2022/01/05 06:53:53;;;;;;;;;;;;;;;20.15;60.66;99232.63;5035730;28;4588;-67
2022/01/05 06:56:19;;;;;;;;;;;;;;;20.30;59.95;99236.56;5035610;28;4678;-67
2022/01/05 06:58:46;;;;;;;;;;;;;;;20.15;60.54;99235.50;5036073;28;4840;-67
2022/01/05 07:01:12;;;;;;;;;;;;;;;20.11;60.67;99241.16;5036170;28;4526;-67
2022/01/05 07:03:39;;;;;;;;;;;;;;;20.31;60.49;99246.63;5034823;28;5555;-67
2022/01/05 07:06:05;;;;;;;;;;;;;;;20.15;60.99;99246.28;5035467;28;4246;-67
2022/01/05 07:08:31;;;;;;;;;;;;;;;20.16;60.96;99253.47;5034209;28;5255;-67
2022/01/05 07:10:58;;;;;;;;;;;;;;;20.06;61.90;99259.72;5036544;28;4653;-67
2022/01/05 07:13:24;;;;;;;;;;;;;;;20.15;61.57;99260.66;5035433;28;5407;-68
2022/01/05 07:15:50;;;;;;;;;;;;;;;20.05;61.55;99256.13;5037070;28;4292;-67
2022/01/05 07:18:17;;;;;;;;;;;;;;;20.15;61.01;99252.03;5035283;28;5050;-70
2022/01/05 07:20:45;;;;;;;;;;;;;;;20.07;61.68;99261.94;5036588;28;4218;-67
2022/01/05 07:23:11;;;;;;;;;;;;;;;20.12;62.25;99250.53;5037230;28;5669;-67
2022/01/05 07:25:38;;;;;;;;;;;;;;;20.06;62.61;99263.34;5034751;28;4187;-67
2022/01/05 07:28:05;;;;;;;;;;;;;;;20.05;62.87;99256.13;5034159;28;4516;-67
2022/01/05 07:30:31;;;;;;;;;;;;;;;20.09;62.55;99259.09;5034846;28;5289;-67
2022/01/05 07:32:57;;;;;;;;;;;;;;;20.14;62.19;99264.94;5035602;28;4221;-67
2022/01/05 07:35:24;;;;;;;;;;;;;;;20.15;62.29;99269.25;5034556;28;4647;-68
2022/01/05 07:37:50;;;;;;;;;;;;;;;20.13;62.58;99263.47;5035323;28;5642;-67
2022/01/05 07:40:16;;;;;;;;;;;;;;;20.22;62.07;99260.09;5035080;28;4104;-67
2022/01/05 07:42:43;;;;;;;;;;;;;;;20.20;62.39;99270.81;5035182;28;5319;-67
2022/01/05 07:45:10;;;;;;;;;;;;;;;20.03;62.76;99270.47;5033398;28;5558;-67
2022/01/05 07:47:36;;;;;;;;;;;;;;;20.11;61.60;99264.16;5033107;28;4186;-67
2022/01/05 07:50:03;;;;;;;;;;;;;;;20.09;62.45;99276.34;5031939;28;5825;-67
2022/01/05 07:52:30;;;;;;;;;;;;;;;20.09;62.20;99261.97;5033338;28;4234;-66
2022/01/05 07:54:56;;;;;;;;;;;;;;;20.16;62.34;99277.22;5034183;28;5506;-71
2022/01/05 07:57:22;;;;;;;;;;;;;;;19.61;61.91;99256.56;5034619;28;4407;-68
2022/01/05 07:59:49;;;;;;;;;;;;;;;19.54;63.35;99269.31;5035478;28;4154;-67
2022/01/05 08:02:15;;;;;;;;;;;;;;;19.73;62.37;99261.16;5036768;28;4200;-66
2022/01/05 08:04:46;;;;;;;;;;;;;;;19.99;61.81;99261.75;5035658;28;4985;-66
2022/01/05 08:07:12;;;;;;;;;;;;;;;20.18;61.12;99273.63;5036803;28;5282;-66
2022/01/05 08:09:39;;;;;;;;;;;;;;;20.07;61.46;99270.56;5035659;28;5276;-66
2022/01/05 08:12:05;;;;;;;;;;;;;;;19.85;62.59;99261.44;5036537;28;4218;-66
2022/01/05 08:14:32;;;;;;;;;;;;;;;20.04;61.80;99271.94;5035356;28;4783;-67
2022/01/05 08:16:59;;;;;;;;;;;;;;;20.08;61.52;99274.88;5035712;28;4160;-68
2022/01/05 08:19:25;;;;;;;;;;;;;;;20.13;61.55;99272.09;5037442;28;4435;-67
2022/01/05 08:21:51;;;;;;;;;;;;;;;20.05;61.66;99282.00;5038964;28;4027;-67
2022/01/05 08:24:18;;;;;;;;;;;;;;;20.04;61.86;99277.69;5038722;28;4499;-68
2022/01/05 08:26:44;;;;;;;;;;;;;;;20.05;61.36;99282.00;5038200;28;5072;-67
2022/01/05 08:29:10;;;;;;;;;;;;;;;20.15;61.31;99289.38;5038628;28;4592;-67
2022/01/05 08:31:37;;;;;;;;;;;;;;;20.01;62.03;99278.31;5039979;28;4560;-67
2022/01/05 08:34:03;;;;;;;;;;;;;;;19.90;61.98;99274.47;5040332;28;4057;-66
2022/01/05 08:36:30;;;;;;;;;;;;;;;19.91;62.09;99275.94;5039080;28;4644;-67
2022/01/05 08:38:56;;;;;;;;;;;;;;;19.85;62.32;99278.66;5038384;28;4500;-67
2022/01/05 08:41:22;;;;;;;;;;;;;;;19.96;61.94;99277.47;5039251;28;4625;-67
2022/01/05 08:43:49;;;;;;;;;;;;;;;20.07;61.38;99282.03;5039978;28;4269;-67
2022/01/05 08:46:15;;;;;;;;;;;;;;;20.03;61.77;99287.69;5039080;28;4883;-67
2022/01/05 08:48:43;;;;;;;;;;;;;;;20.07;61.23;99293.53;5039475;28;5405;-67
2022/01/05 08:51:09;;;;;;;;;;;;;;;20.10;61.14;99285.69;5039951;28;3935;-66
2022/01/05 08:53:39;;;;;;;;;;;;;;;20.10;61.02;99288.56;5039823;28;5584;-67
2022/01/05 08:56:06;;;;;;;;;;;;;;;20.08;61.90;99288.50;5038638;28;4281;-70
2022/01/05 08:58:32;;;;;;;;;;;;;;;19.59;59.05;99290.22;5039156;28;5499;-63
2022/01/05 09:00:58;;;;;;;;;;;;;;;19.46;63.02;99286.31;5038209;28;5573;-63
2022/01/05 09:03:25;;;;;;;;;;;;;;;19.66;62.28;99298.31;5038015;28;4260;-62
2022/01/05 09:05:51;;;;;;;;;;;;;;;19.84;61.30;99294.44;5039432;28;4629;-62
2022/01/05 09:08:18;;;;;;;;;;;;;;;19.99;60.50;99293.34;5038364;28;4142;-64
2022/01/05 09:10:44;;;;;;;;;;;;;;;20.05;60.98;99302.09;5038702;28;4795;-63
2022/01/05 09:13:12;;;;;;;;;;;;;;;20.09;61.16;99302.22;5038961;28;4645;-64
2022/01/05 09:15:38;;;;;;;;;;;;;;;20.06;60.97;99294.94;5038054;28;4218;-64
2022/01/05 09:18:05;;;;;;;;;;;;;;;20.16;61.05;99297.31;5036447;28;4226;-63
2022/01/05 09:20:31;;;;;;;;;;;;;;;19.99;61.47;99298.38;5038134;28;5712;-63
2022/01/05 09:22:57;;;;;;;;;;;;;;;19.94;61.62;99303.28;5038523;28;4696;-63
2022/01/05 09:25:24;;;;;;;;;;;;;;;20.28;60.15;99306.22;5038008;28;4347;-64
2022/01/05 09:27:51;;;;;;;;;;;;;;;20.05;61.19;99319.34;5038624;28;4763;-64
2022/01/05 09:30:18;;;;;;;;;;;;;;;20.01;61.58;99307.75;5037612;28;5418;-64
2022/01/05 09:32:44;;;;;;;;;;;;;;;19.14;53.36;99315.63;5037961;28;4212;-74
2022/01/05 09:35:14;;;;;;;;;;;;;;;17.56;48.18;99308.03;5038800;28;5344;-64
2022/01/05 09:37:52;;;;;;;;;;;;;;;18.31;51.90;99308.97;5035804;28;4552;-64
2022/01/05 09:43:03;;;;;;;;;;;;;;;19.23;57.58;99314.44;5037877;28;5889;-64
2022/01/05 09:45:30;;;;;;;;;;;;;;;19.35;57.54;99313.28;5036317;28;5566;-64
2022/01/05 09:48:10;;;;;;;;;;;;;;;19.56;57.57;99318.16;5020274;28;6347;-64
2022/01/05 09:50:38;;;;;;;;;;;;;;;19.89;56.44;99324.72;5037667;28;4197;-64
2022/01/05 09:53:05;;;;;;;;;;;;;;;19.86;56.74;99320.34;5038717;28;4272;-64
2022/01/05 09:55:31;;;;;;;;;;;;;;;19.93;56.86;99315.44;5020435;28;5600;-64
2022/01/05 09:57:57;;;;;;;;;;;;;;;19.79;57.51;99315.84;5038622;28;4581;-64
2022/01/05 10:00:24;;;;;;;;;;;;;;;19.72;58.12;99311.38;5020636;28;4128;-64
2022/01/05 10:02:50;;;;;;;;;;;;;;;19.83;57.90;99327.44;5019765;28;4242;-64
2022/01/05 10:05:17;;;;;;;;;;;;;;;19.69;58.35;99324.94;5037563;28;4578;-64
2022/01/05 10:07:43;;;;;;;;;;;;;;;19.86;58.21;99331.84;5037207;28;4201;-64
2022/01/05 10:10:10;;;;;;;;;;;;;;;19.79;58.91;99327.34;5020320;28;4239;-64
2022/01/05 10:12:36;;;;;;;;;;;;;;;19.83;58.40;99333.19;5037176;28;4087;-64
2022/01/05 10:15:07;;;;;;;;;;;;;;;19.95;58.08;99327.00;5036561;28;4227;-64
2022/01/05 10:17:36;;;;;;;;;;;;;;;19.85;58.42;99330.34;5037419;28;4052;-64
2022/01/05 10:20:06;;;;;;;;;;;;;;;19.89;58.15;99336.22;5037696;28;4770;-64
2022/01/05 10:22:33;;;;;;;;;;;;;;;19.85;58.74;99324.63;5036819;28;4241;-64
2022/01/05 10:25:00;;;;;;;;;;;;;;;19.73;59.42;99325.06;5035523;28;4601;-64
2022/01/05 10:27:26;;;;;;;;;;;;;;;19.77;59.36;99324.41;5035749;28;5771;-65
2022/01/05 10:29:54;;;;;;;;;;;;;;;19.64;60.00;99326.25;5035984;28;4209;-64
2022/01/05 10:32:20;;;;;;;;;;;;;;;19.72;59.41;99328.59;5035067;28;4727;-64
2022/01/05 10:35:06;;;;;;;;;;;;;;;19.83;59.40;99319.53;5030037;28;4782;-64
2022/01/05 10:37:32;;;;;;;;;;;;;;;19.60;60.08;99323.97;5034874;28;4146;-65
2022/01/05 10:40:06;;;;;;;;;;;;;;;19.83;59.31;99318.81;5018635;28;5186;-64
2022/01/05 10:42:32;;;;;;;;;;;;;;;19.73;59.82;99330.06;5033398;28;5656;-64
2022/01/05 10:44:59;;;;;;;;;;;;;;;19.75;60.03;99330.13;5035577;28;3955;-66
2022/01/05 10:47:25;;;;;;;;;;;;;;;19.90;59.51;99326.16;5036348;28;5637;-65
2022/01/05 10:49:52;;;;;;;;;;;;;;;19.95;59.24;99324.13;5036029;28;4113;-67
2022/01/05 10:52:22;;;;;;;;;;;;;;;17.48;52.13;99324.97;5036279;28;4804;-65
2022/01/05 10:54:49;;;;;;;;;;;;;;;17.11;59.47;99331.53;5033920;28;4220;-65
2022/01/05 10:57:15;;;;;;;;;;;;;;;17.07;56.21;99323.56;5034146;28;4167;-66
2022/01/05 10:59:42;;;;;;;;;;;;;;;16.44;54.23;99324.09;5033834;28;5742;-65
2022/01/05 11:02:19;;;;;;;;;;;;;;;17.01;65.75;99323.34;5033073;28;4714;-69
2022/01/05 11:04:45;;;;;;;;;;;;;;;17.01;54.10;99320.47;5031841;28;4701;-67
2022/01/05 11:07:14;;;;;;;;;;;;;;;16.18;47.82;99321.69;5018283;28;5356;-70
2022/01/05 11:09:42;;;;;;;;;;;;;;;17.17;51.57;99321.03;5014912;28;4643;-75
2022/01/05 11:12:10;;;;;;;;;;;;;;;18.27;50.19;99308.13;5014893;28;5035;-88
2022/01/05 11:14:36;;;;;;;;;;;;;;;18.97;50.11;99308.00;5035767;28;4223;-77
2022/01/05 11:17:03;;;;;;;;;;;;;;;19.32;50.48;99321.13;5035485;28;5522;-80
2022/01/05 11:19:30;;;;;;;;;;;;;;;19.41;50.16;99310.59;5032355;28;4233;-77
2022/01/05 11:22:02;;;;;;;;;;;;;;;19.49;50.46;99307.91;5036423;28;4222;-81
2022/01/05 11:24:48;;;;;;;;;;;;;;;19.82;50.26;99303.00;5033973;28;5302;-76
2022/01/05 11:27:21;;;;;;;;;;;;;;;19.67;50.87;99304.75;5029462;28;4643;-75
2022/01/05 11:29:47;;;;;;;;;;;;;;;19.66;51.21;99291.84;5033392;28;4059;-74
2022/01/05 11:32:15;;;;;;;;;;;;;;;19.62;51.82;99303.94;5034201;28;4072;-74
2022/01/05 11:34:42;;;;;;;;;;;;;;;19.66;51.97;99301.16;5035000;28;4130;-74
2022/01/05 11:37:09;;;;;;;;;;;;;;;19.74;52.33;99309.28;5034713;28;4235;-76
2022/01/05 11:39:40;;;;;;;;;;;;;;;19.62;52.94;99309.69;5035078;28;4231;-76
2022/01/05 11:42:07;;;;;;;;;;;;;;;19.70;52.64;99302.69;5036461;28;4218;-73
2022/01/05 11:44:43;;;;;;;;;;;;;;;19.78;52.79;99300.03;5036872;28;4194;-75
2022/01/05 11:47:19;;;;;;;;;;;;;;;19.71;53.38;99292.69;5036593;28;4134;-75
2022/01/05 11:49:45;;;;;;;;;;;;;;;19.66;54.03;99298.31;5036681;28;4066;-76
2022/01/05 11:52:11;;;;;;;;;;;;;;;19.60;54.39;99298.16;5034147;28;4234;-76
2022/01/05 11:54:38;;;;;;;;;;;;;;;19.67;54.08;99294.00;5039297;28;4195;-70
2022/01/05 11:57:20;;;;;;;;;;;;;;;19.76;54.35;99291.38;5051847;28;4248;-77
2022/01/05 12:00:17;;;;;;;;;;;;;;;19.67;54.64;99296.16;5040713;28;4067;-76
2022/01/05 12:02:43;;;;;;;;;;;;;;;19.69;54.62;99278.28;5040093;28;4079;-77
2022/01/05 12:05:10;;;;;;;;;;;;;;;19.63;55.22;99293.94;5040779;28;4816;-77
2022/01/05 12:07:37;;;;;;;;;;;;;;;19.76;54.71;99292.09;5039321;28;4721;-78
2022/01/05 12:10:20;;;;;;;;;;;;;;;19.66;55.39;99298.31;5041272;28;4612;-76
2022/01/05 12:12:54;;;;;;;;;;;;;;;19.72;55.30;99302.75;5039694;28;4707;-77
2022/01/05 12:15:38;;;;;;;;;;;;;;;19.79;55.42;99299.34;5023273;28;4223;-77
2022/01/05 12:18:05;;;;;;;;;;;;;;;19.77;55.40;99292.81;5040695;28;4126;-77
2022/01/05 12:20:35;;;;;;;;;;;;;;;19.75;55.53;99307.16;5039339;28;5450;-78
2022/01/05 12:23:24;;;;;;;;;;;;;;;19.79;55.76;99298.63;5041026;28;4687;-77
2022/01/05 12:26:04;;;;;;;;;;;;;;;19.68;56.07;99300.50;5039289;28;4406;-77
2022/01/05 12:28:31;;;;;;;;;;;;;;;19.80;56.09;99300.09;5038470;28;5083;-76
2022/01/05 12:30:57;;;;;;;;;;;;;;;19.85;55.94;99304.50;5040239;28;4375;-77
2022/01/05 12:33:24;;;;;;;;;;;;;;;19.65;56.62;99302.59;5035878;28;4653;-75
2022/01/05 12:36:00;;;;;;;;;;;;;;;19.62;56.39;99303.94;5036783;28;4282;-79
2022/01/05 12:38:30;;;;;;;;;;;;;;;19.62;56.17;99286.72;5039218;28;4205;-77
2022/01/05 12:40:57;;;;;;;;;;;;;;;19.78;55.43;99288.53;5040364;28;4069;-77
2022/01/05 12:43:28;;;;;;;;;;;;;;;19.90;55.17;99271.59;5043243;28;5464;-78
2022/01/05 12:45:55;;;;;;;;;;;;;;;19.78;55.73;99274.91;5041765;28;4233;-77
2022/01/05 12:48:31;;;;;;;;;;;;;;;19.79;55.75;99292.88;5041042;28;4103;-77
2022/01/05 12:51:22;;;;;;;;;;;;;;;19.83;55.38;99287.94;5040196;28;4050;-77
2022/01/05 12:53:52;;;;;;;;;;;;;;;19.91;55.25;99280.97;5039192;28;4162;-77
2022/01/05 12:56:41;;;;;;;;;;;;;;;19.91;55.69;99275.94;5040991;28;5301;-77
2022/01/05 12:59:15;;;;;;;;;;;;;;;19.81;56.05;99285.06;5041310;28;4373;-78
2022/01/05 13:01:43;;;;;;;;;;;;;;;19.78;56.21;99274.19;5041341;28;4129;-77